Seavoyager — 9HUM8 — position and weather

sailwx.info

Track history (hours):
 
Tides and Currents Weather Stations Pressure Air Temp Water Temp Dewpoint Dewpoint Depression Visibility Wind Speed Wind Dir Waves Ship Positions

Seavoyager

Last reported at 2017-Apr-27 11:42 UTC. Time now 2017-Apr-27 16:39 UTC.
Position N 37°37' E 010°48'.

Length 273 m; draft 9.4 m.

Type: Tanker. MMSI: 256439000.

Date/timePositionNaut miles runAvg speedWind from/ knotsBaromVisibWave heightAir tempDewpointWater temp
2017-Apr-27 11:42N 37°37' E 010°48'211.0
2017-Apr-27 11:30N 37°36' E 010°51'811.5
2017-Apr-27 10:47N 37°32' E 010°60'1111.4
2017-Apr-27 09:48N 37°27' E 011°12'411.4
2017-Apr-27 09:29N 37°25' E 011°16'612.4
2017-Apr-27 09:00N 37°22' E 011°23'714.4
2017-Apr-27 08:30N 37°19' E 011°31'511.0
2017-Apr-27 08:00N 37°17' E 011°37'2311.2
2017-Apr-27 05:58N 37°07' E 012°03'2410.8
2017-Apr-27 03:46N 36°59' E 012°31'610.7
2017-Apr-27 03:12N 36°57' E 012°38'210.6
2017-Apr-27 03:00N 36°56' E 012°40'510.7
2017-Apr-27 02:30N 36°55' E 012°47'510.9
2017-Apr-27 02:00N 36°53' E 012°53'611.1
2017-Apr-27 01:30N 36°51' E 012°60'611.0
2017-Apr-27 01:00N 36°49' E 013°06'511.1
2017-Apr-27 00:30N 36°47' E 013°13'611.2
2017-Apr-27 00:00N 36°46' E 013°19'611.3
2017-Apr-26 23:30N 36°44' E 013°26'611.3
2017-Apr-26 23:00N 36°42' E 013°33'611.3
2017-Apr-26 22:30N 36°40' E 013°39'611.4
2017-Apr-26 22:00N 36°38' E 013°46'611.0
2017-Apr-26 21:30N 36°36' E 013°53'510.7
2017-Apr-26 21:00N 36°35' E 013°59'510.6
2017-Apr-26 20:30N 36°33' E 014°05'510.5
2017-Apr-26 20:00N 36°31' E 014°11'510.4
2017-Apr-26 19:30N 36°30' E 014°18'510.4
2017-Apr-26 19:00N 36°28' E 014°24'510.6
2017-Apr-26 18:30N 36°27' E 014°30'510.7
2017-Apr-26 18:00N 36°25' E 014°36'510.8
2017-Apr-26 17:30N 36°25' E 014°43'510.9
2017-Apr-26 17:00N 36°24' E 014°50'611.0
2017-Apr-26 16:30N 36°24' E 014°57'711.1
2017-Apr-26 15:54N 36°23' E 015°05'411.0
2017-Apr-26 15:30N 36°23' E 015°10'611.3
2017-Apr-26 15:00N 36°23' E 015°17'611.0
2017-Apr-26 14:30N 36°25' E 015°24'2111.3
2017-Apr-26 12:40N 36°35' E 015°46'211.3
2017-Apr-26 12:30N 36°36' E 015°48'1611.1
2017-Apr-26 11:02N 36°45' E 016°06'  
2017-Apr-20 03:37N 44°24' E 013°47'212.2
2017-Apr-20 03:30N 44°26' E 013°45'612.2
2017-Apr-20 03:01N 44°31' E 013°41'612.2
2017-Apr-20 02:29N 44°36' E 013°35'612.1
2017-Apr-20 02:01N 44°40' E 013°31'611.9
2017-Apr-20 01:30N 44°45' E 013°26'612.1
2017-Apr-20 01:00N 44°50' E 013°21'612.2
2017-Apr-20 00:30N 44°55' E 013°16'612.1
2017-Apr-20 00:00N 45°00' E 013°12'611.9
2017-Apr-19 23:30N 45°05' E 013°07'611.4
2017-Apr-19 23:01N 45°10' E 013°04'612.1
2017-Apr-19 22:31N 45°16' E 013°02'612.2
2017-Apr-19 22:01N 45°22' E 013°00'611.3
2017-Apr-19 21:30N 45°28' E 013°00'612.6
2017-Apr-19 21:00N 45°31' E 013°08'612.5
2017-Apr-19 20:30N 45°33' E 013°17'612.5
2017-Apr-19 20:00N 45°35' E 013°25'612.4
2017-Apr-19 19:31N 45°38' E 013°33'612.1
2017-Apr-19 19:01N 45°37' E 013°41'4 6.7
2017-Apr-19 18:28N 45°37' E 013°47'0 0.0
2017-Apr-19 17:58N 45°37' E 013°47'0 0.0
2017-Apr-19 17:28N 45°37' E 013°47'0 0.0
2017-Apr-19 16:49N 45°37' E 013°47'0 0.0
2017-Apr-19 16:28N 45°37' E 013°47'0 0.0
2017-Apr-19 15:49N 45°37' E 013°47'0 0.0
2017-Apr-19 15:28N 45°37' E 013°47'0 0.0
2017-Apr-19 14:55N 45°37' E 013°47'0 0.0
2017-Apr-19 14:28N 45°37' E 013°47'0 0.0
2017-Apr-19 13:22N 45°37' E 013°47'0 0.0
2017-Apr-19 12:55N 45°37' E 013°47'0 0.0
2017-Apr-19 12:25N 45°37' E 013°47'0 0.0
2017-Apr-19 11:58N 45°37' E 013°47'0 0.0
2017-Apr-19 11:28N 45°37' E 013°47'0 0.0
2017-Apr-19 10:46N 45°37' E 013°47'0 0.0
2017-Apr-19 10:28N 45°37' E 013°47'0 0.0
2017-Apr-19 09:49N 45°37' E 013°47'0 0.0
2017-Apr-19 09:28N 45°37' E 013°47'0 0.0
2017-Apr-19 08:49N 45°37' E 013°47'0 0.0
2017-Apr-19 08:19N 45°37' E 013°47'0 0.0
2017-Apr-19 07:46N 45°37' E 013°47'0 0.0
2017-Apr-19 07:28N 45°37' E 013°47'0 0.0
2017-Apr-19 06:58N 45°37' E 013°47'0 0.0
2017-Apr-19 06:19N 45°37' E 013°47'0 0.0
2017-Apr-19 05:49N 45°37' E 013°47'0 0.0
2017-Apr-19 05:28N 45°37' E 013°47'0 0.0
2017-Apr-19 04:58N 45°37' E 013°47'0 0.0
2017-Apr-19 04:28N 45°37' E 013°47'0 0.0
2017-Apr-19 03:58N 45°37' E 013°47'0 0.0
2017-Apr-19 03:13N 45°37' E 013°47'0 0.0
2017-Apr-19 02:58N 45°37' E 013°47'0 0.0
2017-Apr-19 02:28N 45°37' E 013°47'0 0.0
2017-Apr-19 01:52N 45°37' E 013°47'0 0.0
2017-Apr-19 01:28N 45°37' E 013°47'0 0.0
2017-Apr-19 00:58N 45°37' E 013°47'0 0.0
2017-Apr-19 00:25N 45°37' E 013°47'0 0.0
2017-Apr-18 23:58N 45°37' E 013°47'0 0.0
2017-Apr-18 23:28N 45°37' E 013°47'0 0.0
2017-Apr-18 22:58N 45°37' E 013°47'0 0.0
2017-Apr-18 22:28N 45°37' E 013°47'0 0.0
2017-Apr-18 21:58N 45°37' E 013°47'0 0.0
2017-Apr-18 21:28N 45°37' E 013°47'0 0.0
2017-Apr-18 20:58N 45°37' E 013°47'0 0.0
2017-Apr-18 20:22N 45°37' E 013°47'0 0.0
2017-Apr-18 19:58N 45°37' E 013°47'0 0.0
2017-Apr-18 19:28N 45°37' E 013°47'0 0.0
2017-Apr-18 18:55N 45°37' E 013°47'0 0.0
2017-Apr-18 18:25N 45°37' E 013°47'0 0.0
2017-Apr-18 17:58N 45°37' E 013°47'0 0.0
2017-Apr-18 17:28N 45°37' E 013°47'0 0.0
2017-Apr-18 16:58N 45°37' E 013°47'0 0.0
2017-Apr-18 16:28N 45°37' E 013°47'0 0.0
2017-Apr-18 15:55N 45°37' E 013°47'0 0.0
2017-Apr-18 15:25N 45°37' E 013°47'0 0.0
2017-Apr-18 14:52N 45°37' E 013°47'0 0.0
2017-Apr-18 14:28N 45°37' E 013°47'0 0.0
2017-Apr-18 13:25N 45°37' E 013°47'0 0.0
2017-Apr-18 12:55N 45°37' E 013°47'0 0.0
2017-Apr-18 12:28N 45°37' E 013°47'0 0.0
2017-Apr-18 11:55N 45°37' E 013°47'0 0.0
2017-Apr-18 11:25N 45°37' E 013°47'0 0.0
2017-Apr-18 10:55N 45°37' E 013°47'0 0.0
2017-Apr-18 10:25N 45°37' E 013°47'0 0.0
2017-Apr-18 09:52N 45°37' E 013°47'0 0.0
2017-Apr-18 09:28N 45°37' E 013°47'0 0.0
2017-Apr-18 08:55N 45°37' E 013°47'0 0.0
2017-Apr-18 08:25N 45°37' E 013°47'0 0.0
2017-Apr-18 07:58N 45°37' E 013°47'0 0.0
2017-Apr-18 07:25N 45°37' E 013°47'0 0.0
2017-Apr-18 06:55N 45°37' E 013°47'0 0.0
2017-Apr-18 06:25N 45°37' E 013°47'0 0.0
2017-Apr-18 05:58N 45°37' E 013°47'0 0.0
2017-Apr-18 05:31N 45°37' E 013°46'0 0.8
2017-Apr-18 05:00N 45°37' E 013°46'2 3.7
2017-Apr-18 04:30N 45°37' E 013°43'1 2.9
2017-Apr-18 04:00N 45°37' E 013°41'1 1.2
2017-Apr-18 03:31N 45°38' E 013°41'1 1.2
2017-Apr-18 02:59N 45°38' E 013°41'0 0.1
2017-Apr-18 02:26N 45°38' E 013°41'0 0.0
2017-Apr-18 01:59N 45°38' E 013°41'0 0.0
2017-Apr-18 01:29N 45°38' E 013°41'0 0.0
2017-Apr-18 00:59N 45°38' E 013°41'0 0.0
2017-Apr-18 00:29N 45°38' E 013°41'0 0.1
2017-Apr-17 23:59N 45°38' E 013°41'0 0.0
2017-Apr-17 23:29N 45°38' E 013°41'0 0.0
2017-Apr-17 22:59N 45°38' E 013°41'0 0.0
2017-Apr-17 22:29N 45°38' E 013°41'0 0.0
2017-Apr-17 21:59N 45°38' E 013°41'0 0.0
2017-Apr-17 21:29N 45°38' E 013°41'0 0.0
2017-Apr-17 20:59N 45°38' E 013°41'0 0.1
2017-Apr-17 20:29N 45°38' E 013°41'0 0.2
2017-Apr-17 19:56N 45°38' E 013°41'0 0.1
2017-Apr-17 19:29N 45°38' E 013°41'0 0.1
2017-Apr-17 18:59N 45°38' E 013°41'0 0.0
2017-Apr-17 18:29N 45°38' E 013°41'0 0.0
2017-Apr-17 17:59N 45°38' E 013°41'0 0.0
2017-Apr-17 17:29N 45°38' E 013°41'0 0.0
2017-Apr-17 16:59N 45°38' E 013°41'0 0.0
2017-Apr-17 16:26N 45°38' E 013°41'0 0.0
2017-Apr-17 15:59N 45°38' E 013°41'0 0.0
2017-Apr-17 15:29N 45°38' E 013°41'0 0.0
2017-Apr-17 14:59N 45°38' E 013°41'0 0.0
2017-Apr-17 14:29N 45°38' E 013°41'0 0.0
2017-Apr-17 13:26N 45°38' E 013°41'0 0.1
2017-Apr-17 12:53N 45°38' E 013°41'0 0.1
2017-Apr-17 12:26N 45°38' E 013°41'0 0.1
2017-Apr-17 11:59N 45°38' E 013°41'  
Track history (hours):
 
Tides and Currents Weather Stations Pressure Air Temp Water Temp Dewpoint Dewpoint Depression Visibility Wind Speed Wind Dir Waves Ship Positions

Seavoyager

Last reported at 2017-Apr-27 11:42 UTC. Time now 2017-Apr-27 16:39 UTC.
Position N 37°37' E 010°48'.

Length 273 m; draft 9.4 m.

Type: Tanker. MMSI: 256439000.

Date/timePositionNaut miles runAvg speedWind from/ knotsBaromVisibWave heightAir tempDewpointWater temp
2017-Apr-27 11:42N 37°37' E 010°48'211.0
2017-Apr-27 11:30N 37°36' E 010°51'811.5
2017-Apr-27 10:47N 37°32' E 010°60'1111.4
2017-Apr-27 09:48N 37°27' E 011°12'411.4
2017-Apr-27 09:29N 37°25' E 011°16'612.4
2017-Apr-27 09:00N 37°22' E 011°23'714.4
2017-Apr-27 08:30N 37°19' E 011°31'511.0
2017-Apr-27 08:00N 37°17' E 011°37'2311.2
2017-Apr-27 05:58N 37°07' E 012°03'2410.8
2017-Apr-27 03:46N 36°59' E 012°31'610.7
2017-Apr-27 03:12N 36°57' E 012°38'210.6
2017-Apr-27 03:00N 36°56' E 012°40'510.7
2017-Apr-27 02:30N 36°55' E 012°47'510.9
2017-Apr-27 02:00N 36°53' E 012°53'611.1
2017-Apr-27 01:30N 36°51' E 012°60'611.0
2017-Apr-27 01:00N 36°49' E 013°06'511.1
2017-Apr-27 00:30N 36°47' E 013°13'611.2
2017-Apr-27 00:00N 36°46' E 013°19'611.3
2017-Apr-26 23:30N 36°44' E 013°26'611.3
2017-Apr-26 23:00N 36°42' E 013°33'611.3
2017-Apr-26 22:30N 36°40' E 013°39'611.4
2017-Apr-26 22:00N 36°38' E 013°46'611.0
2017-Apr-26 21:30N 36°36' E 013°53'510.7
2017-Apr-26 21:00N 36°35' E 013°59'510.6
2017-Apr-26 20:30N 36°33' E 014°05'510.5
2017-Apr-26 20:00N 36°31' E 014°11'510.4
2017-Apr-26 19:30N 36°30' E 014°18'510.4
2017-Apr-26 19:00N 36°28' E 014°24'510.6
2017-Apr-26 18:30N 36°27' E 014°30'510.7
2017-Apr-26 18:00N 36°25' E 014°36'510.8
2017-Apr-26 17:30N 36°25' E 014°43'510.9
2017-Apr-26 17:00N 36°24' E 014°50'611.0
2017-Apr-26 16:30N 36°24' E 014°57'711.1
2017-Apr-26 15:54N 36°23' E 015°05'411.0
2017-Apr-26 15:30N 36°23' E 015°10'611.3
2017-Apr-26 15:00N 36°23' E 015°17'611.0
2017-Apr-26 14:30N 36°25' E 015°24'2111.3
2017-Apr-26 12:40N 36°35' E 015°46'211.3
2017-Apr-26 12:30N 36°36' E 015°48'1611.1
2017-Apr-26 11:02N 36°45' E 016°06'  
2017-Apr-20 03:37N 44°24' E 013°47'212.2
2017-Apr-20 03:30N 44°26' E 013°45'612.2
2017-Apr-20 03:01N 44°31' E 013°41'612.2
2017-Apr-20 02:29N 44°36' E 013°35'612.1
2017-Apr-20 02:01N 44°40' E 013°31'611.9
2017-Apr-20 01:30N 44°45' E 013°26'612.1
2017-Apr-20 01:00N 44°50' E 013°21'612.2
2017-Apr-20 00:30N 44°55' E 013°16'612.1
2017-Apr-20 00:00N 45°00' E 013°12'611.9
2017-Apr-19 23:30N 45°05' E 013°07'611.4
2017-Apr-19 23:01N 45°10' E 013°04'612.1
2017-Apr-19 22:31N 45°16' E 013°02'612.2
2017-Apr-19 22:01N 45°22' E 013°00'611.3
2017-Apr-19 21:30N 45°28' E 013°00'612.6
2017-Apr-19 21:00N 45°31' E 013°08'612.5
2017-Apr-19 20:30N 45°33' E 013°17'612.5
2017-Apr-19 20:00N 45°35' E 013°25'612.4
2017-Apr-19 19:31N 45°38' E 013°33'612.1
2017-Apr-19 19:01N 45°37' E 013°41'4 6.7
2017-Apr-19 18:28N 45°37' E 013°47'0 0.0
2017-Apr-19 17:58N 45°37' E 013°47'0 0.0
2017-Apr-19 17:28N 45°37' E 013°47'0 0.0
2017-Apr-19 16:49N 45°37' E 013°47'0 0.0
2017-Apr-19 16:28N 45°37' E 013°47'0 0.0
2017-Apr-19 15:49N 45°37' E 013°47'0 0.0
2017-Apr-19 15:28N 45°37' E 013°47'0 0.0
2017-Apr-19 14:55N 45°37' E 013°47'0 0.0
2017-Apr-19 14:28N 45°37' E 013°47'0 0.0
2017-Apr-19 13:22N 45°37' E 013°47'0 0.0
2017-Apr-19 12:55N 45°37' E 013°47'0 0.0
2017-Apr-19 12:25N 45°37' E 013°47'0 0.0
2017-Apr-19 11:58N 45°37' E 013°47'0 0.0
2017-Apr-19 11:28N 45°37' E 013°47'0 0.0
2017-Apr-19 10:46N 45°37' E 013°47'0 0.0
2017-Apr-19 10:28N 45°37' E 013°47'0 0.0
2017-Apr-19 09:49N 45°37' E 013°47'0 0.0
2017-Apr-19 09:28N 45°37' E 013°47'0 0.0
2017-Apr-19 08:49N 45°37' E 013°47'0 0.0
2017-Apr-19 08:19N 45°37' E 013°47'0 0.0
2017-Apr-19 07:46N 45°37' E 013°47'0 0.0
2017-Apr-19 07:28N 45°37' E 013°47'0 0.0
2017-Apr-19 06:58N 45°37' E 013°47'0 0.0
2017-Apr-19 06:19N 45°37' E 013°47'0 0.0
2017-Apr-19 05:49N 45°37' E 013°47'0 0.0
2017-Apr-19 05:28N 45°37' E 013°47'0 0.0
2017-Apr-19 04:58N 45°37' E 013°47'0 0.0
2017-Apr-19 04:28N 45°37' E 013°47'0 0.0
2017-Apr-19 03:58N 45°37' E 013°47'0 0.0
2017-Apr-19 03:13N 45°37' E 013°47'0 0.0
2017-Apr-19 02:58N 45°37' E 013°47'0 0.0
2017-Apr-19 02:28N 45°37' E 013°47'0 0.0
2017-Apr-19 01:52N 45°37' E 013°47'0 0.0
2017-Apr-19 01:28N 45°37' E 013°47'0 0.0
2017-Apr-19 00:58N 45°37' E 013°47'0 0.0
2017-Apr-19 00:25N 45°37' E 013°47'0 0.0
2017-Apr-18 23:58N 45°37' E 013°47'0 0.0
2017-Apr-18 23:28N 45°37' E 013°47'0 0.0
2017-Apr-18 22:58N 45°37' E 013°47'0 0.0
2017-Apr-18 22:28N 45°37' E 013°47'0 0.0
2017-Apr-18 21:58N 45°37' E 013°47'0 0.0
2017-Apr-18 21:28N 45°37' E 013°47'0 0.0
2017-Apr-18 20:58N 45°37' E 013°47'0 0.0
2017-Apr-18 20:22N 45°37' E 013°47'0 0.0
2017-Apr-18 19:58N 45°37' E 013°47'0 0.0
2017-Apr-18 19:28N 45°37' E 013°47'0 0.0
2017-Apr-18 18:55N 45°37' E 013°47'0 0.0
2017-Apr-18 18:25N 45°37' E 013°47'0 0.0
2017-Apr-18 17:58N 45°37' E 013°47'0 0.0
2017-Apr-18 17:28N 45°37' E 013°47'0 0.0
2017-Apr-18 16:58N 45°37' E 013°47'0 0.0
2017-Apr-18 16:28N 45°37' E 013°47'0 0.0
2017-Apr-18 15:55N 45°37' E 013°47'0 0.0
2017-Apr-18 15:25N 45°37' E 013°47'0 0.0
2017-Apr-18 14:52N 45°37' E 013°47'0 0.0
2017-Apr-18 14:28N 45°37' E 013°47'0 0.0
2017-Apr-18 13:25N 45°37' E 013°47'0 0.0
2017-Apr-18 12:55N 45°37' E 013°47'0 0.0
2017-Apr-18 12:28N 45°37' E 013°47'0 0.0
2017-Apr-18 11:55N 45°37' E 013°47'0 0.0
2017-Apr-18 11:25N 45°37' E 013°47'0 0.0
2017-Apr-18 10:55N 45°37' E 013°47'0 0.0
2017-Apr-18 10:25N 45°37' E 013°47'0 0.0
2017-Apr-18 09:52N 45°37' E 013°47'0 0.0
2017-Apr-18 09:28N 45°37' E 013°47'0 0.0
2017-Apr-18 08:55N 45°37' E 013°47'0 0.0
2017-Apr-18 08:25N 45°37' E 013°47'0 0.0
2017-Apr-18 07:58N 45°37' E 013°47'0 0.0
2017-Apr-18 07:25N 45°37' E 013°47'0 0.0
2017-Apr-18 06:55N 45°37' E 013°47'0 0.0
2017-Apr-18 06:25N 45°37' E 013°47'0 0.0
2017-Apr-18 05:58N 45°37' E 013°47'0 0.0
2017-Apr-18 05:31N 45°37' E 013°46'0 0.8
2017-Apr-18 05:00N 45°37' E 013°46'2 3.7
2017-Apr-18 04:30N 45°37' E 013°43'1 2.9
2017-Apr-18 04:00N 45°37' E 013°41'1 1.2
2017-Apr-18 03:31N 45°38' E 013°41'1 1.2
2017-Apr-18 02:59N 45°38' E 013°41'0 0.1
2017-Apr-18 02:26N 45°38' E 013°41'0 0.0
2017-Apr-18 01:59N 45°38' E 013°41'0 0.0
2017-Apr-18 01:29N 45°38' E 013°41'0 0.0
2017-Apr-18 00:59N 45°38' E 013°41'0 0.0
2017-Apr-18 00:29N 45°38' E 013°41'0 0.1
2017-Apr-17 23:59N 45°38' E 013°41'0 0.0
2017-Apr-17 23:29N 45°38' E 013°41'0 0.0
2017-Apr-17 22:59N 45°38' E 013°41'0 0.0
2017-Apr-17 22:29N 45°38' E 013°41'0 0.0
2017-Apr-17 21:59N 45°38' E 013°41'0 0.0
2017-Apr-17 21:29N 45°38' E 013°41'0 0.0
2017-Apr-17 20:59N 45°38' E 013°41'0 0.1
2017-Apr-17 20:29N 45°38' E 013°41'0 0.2
2017-Apr-17 19:56N 45°38' E 013°41'0 0.1
2017-Apr-17 19:29N 45°38' E 013°41'0 0.1
2017-Apr-17 18:59N 45°38' E 013°41'0 0.0
2017-Apr-17 18:29N 45°38' E 013°41'0 0.0
2017-Apr-17 17:59N 45°38' E 013°41'0 0.0
2017-Apr-17 17:29N 45°38' E 013°41'0 0.0
2017-Apr-17 16:59N 45°38' E 013°41'0 0.0
2017-Apr-17 16:26N 45°38' E 013°41'0 0.0
2017-Apr-17 15:59N 45°38' E 013°41'0 0.0
2017-Apr-17 15:29N 45°38' E 013°41'0 0.0
2017-Apr-17 14:59N 45°38' E 013°41'0 0.0
2017-Apr-17 14:29N 45°38' E 013°41'0 0.0
2017-Apr-17 13:26N 45°38' E 013°41'0 0.1
2017-Apr-17 12:53N 45°38' E 013°41'0 0.1
2017-Apr-17 12:26N 45°38' E 013°41'0 0.1
2017-Apr-17 11:59N 45°38' E 013°41'  

Dump ship's entire track history